createdAt,value
2022-08-28T00:00:38.769Z,20.40
2022-08-28T00:02:41.800Z,19.03
2022-08-28T00:04:44.987Z,20.33
2022-08-28T00:06:49.527Z,20.47
2022-08-28T00:08:52.712Z,19.93
2022-08-28T00:10:55.722Z,21.77
2022-08-28T00:12:59.334Z,22.37
2022-08-28T00:15:02.625Z,19.83
2022-08-28T00:17:05.714Z,23.80
2022-08-28T00:19:10.921Z,21.10
2022-08-28T00:21:14.359Z,19.93
2022-08-28T00:23:19.364Z,20.03
2022-08-28T00:25:24.149Z,20.90
2022-08-28T00:27:44.799Z,20.77
2022-08-28T00:29:48.282Z,19.53
2022-08-28T00:31:53.187Z,20.57
2022-08-28T00:33:56.168Z,19.03
2022-08-28T00:35:59.289Z,18.47
2022-08-28T00:38:02.309Z,18.50
2022-08-28T00:40:08.408Z,20.93
2022-08-28T00:42:11.717Z,19.27
2022-08-28T00:44:17.443Z,22.93
2022-08-28T00:46:23.198Z,18.70
2022-08-28T00:48:26.228Z,19.20
2022-08-28T00:50:50.977Z,18.37
2022-08-28T00:52:58.880Z,18.03
2022-08-28T00:55:05.270Z,18.27
2022-08-28T00:57:11.559Z,22.07
2022-08-28T00:59:17.724Z,19.80
2022-08-28T01:01:20.777Z,22.60
2022-08-28T01:03:26.431Z,19.97
2022-08-28T01:05:30.499Z,21.50
2022-08-28T01:07:34.494Z,20.10
2022-08-28T01:09:39.551Z,18.70
2022-08-28T01:11:45.059Z,20.50
2022-08-28T01:13:51.147Z,19.07
2022-08-28T01:15:55.808Z,18.37
2022-08-28T01:18:05.921Z,18.77
2022-08-28T01:20:15.121Z,21.10
2022-08-28T01:22:22.181Z,18.70
2022-08-28T01:24:27.637Z,18.63
2022-08-28T01:26:32.358Z,19.57
2022-08-28T01:28:35.806Z,18.80
2022-08-28T01:30:39.821Z,19.33
2022-08-28T01:32:47.229Z,19.70
2022-08-28T01:34:50.720Z,19.27
2022-08-28T01:36:53.977Z,18.87
2022-08-28T01:39:03.372Z,17.90
2022-08-28T01:41:08.432Z,19.50
2022-08-28T01:43:15.212Z,19.87
2022-08-28T01:45:21.096Z,19.43
2022-08-28T01:47:24.815Z,19.47
2022-08-28T01:49:29.478Z,19.37
2022-08-28T01:51:35.233Z,19.33
2022-08-28T01:53:45.136Z,22.20
2022-08-28T01:55:50.938Z,19.70
2022-08-28T01:57:56.398Z,19.50
2022-08-28T02:00:00.033Z,18.90
2022-08-28T02:02:03.997Z,18.40
2022-08-28T02:04:07.684Z,20.03
2022-08-28T02:06:11.924Z,20.63
2022-08-28T02:08:15.448Z,20.23
2022-08-28T02:10:18.955Z,23.37
2022-08-28T02:12:22.654Z,18.70
2022-08-28T02:14:27.346Z,18.60
2022-08-28T02:16:30.938Z,19.20
2022-08-28T02:18:34.505Z,19.10
2022-08-28T02:20:38.121Z,19.90
2022-08-28T02:22:41.542Z,20.70
2022-08-28T02:24:45.295Z,20.27
2022-08-28T02:26:48.955Z,20.63
2022-08-28T02:28:52.778Z,19.87
2022-08-28T02:30:57.821Z,19.53
2022-08-28T02:33:01.715Z,18.83
2022-08-28T02:35:06.173Z,18.07
2022-08-28T02:37:15.119Z,19.30
2022-08-28T02:39:18.607Z,17.97
2022-08-28T02:41:22.324Z,18.77
2022-08-28T02:43:25.827Z,18.73
2022-08-28T02:45:29.252Z,21.80
2022-08-28T02:47:34.037Z,18.97
2022-08-28T02:49:37.378Z,18.80
2022-08-28T02:51:40.955Z,22.37
2022-08-28T02:53:44.574Z,19.57
2022-08-28T02:55:48.066Z,20.37
2022-08-28T02:57:52.669Z,19.57
2022-08-28T02:59:56.536Z,19.20
2022-08-28T03:02:00.864Z,20.47
2022-08-28T03:04:05.442Z,19.90
2022-08-28T03:06:08.711Z,22.17
2022-08-28T03:08:11.955Z,19.17
2022-08-28T03:10:16.198Z,25.10
2022-08-28T03:12:23.977Z,22.60
2022-08-28T03:14:27.778Z,19.40
2022-08-28T03:16:31.008Z,18.53
2022-08-28T03:18:34.223Z,18.00
2022-08-28T03:20:39.089Z,20.10
2022-08-28T03:22:59.873Z,18.30
2022-08-28T03:25:03.792Z,17.10
2022-08-28T03:27:06.777Z,19.50
2022-08-28T03:29:09.765Z,18.23
2022-08-28T03:31:15.798Z,19.27
2022-08-28T03:33:19.598Z,22.83
2022-08-28T03:35:22.618Z,17.80
2022-08-28T03:37:27.093Z,18.97
2022-08-28T03:39:30.072Z,18.60
2022-08-28T03:41:33.364Z,17.93
2022-08-28T03:43:36.369Z,17.47
2022-08-28T03:45:40.233Z,17.60
2022-08-28T03:47:43.482Z,18.60
2022-08-28T03:49:46.485Z,26.17
2022-08-28T03:51:49.456Z,17.63
2022-08-28T03:53:53.881Z,16.83
2022-08-28T03:55:57.876Z,17.10
2022-08-28T03:58:01.008Z,18.03
2022-08-28T04:00:08.703Z,20.57
2022-08-28T04:02:14.907Z,18.23
2022-08-28T04:04:17.951Z,17.73
2022-08-28T04:06:21.059Z,18.07
2022-08-28T04:08:24.437Z,21.03
2022-08-28T04:10:29.177Z,21.40
2022-08-28T04:12:35.239Z,18.33
2022-08-28T04:14:38.871Z,19.67
2022-08-28T04:16:42.051Z,18.13
2022-08-28T04:18:45.108Z,19.50
2022-08-28T04:20:48.055Z,17.57
2022-08-28T04:22:55.017Z,17.97
2022-08-28T04:24:58.403Z,18.87
2022-08-28T04:27:02.874Z,18.23
2022-08-28T04:29:06.158Z,18.20
2022-08-28T04:31:09.524Z,23.53
2022-08-28T04:33:12.515Z,17.77
2022-08-28T04:35:15.801Z,17.33
2022-08-28T04:37:19.441Z,17.80
2022-08-28T04:39:22.556Z,19.07
2022-08-28T04:41:25.594Z,17.13
2022-08-28T04:43:29.983Z,18.43
2022-08-28T04:45:33.076Z,16.80
2022-08-28T04:47:37.930Z,19.70
2022-08-28T04:49:41.616Z,18.23
2022-08-28T04:51:44.620Z,18.20
2022-08-28T04:53:50.035Z,20.10
2022-08-28T04:55:55.232Z,18.27
2022-08-28T04:57:58.407Z,18.00
2022-08-28T05:00:03.147Z,17.80
2022-08-28T05:02:06.634Z,18.50
2022-08-28T05:04:11.260Z,17.40
2022-08-28T05:06:15.625Z,17.63
2022-08-28T05:08:20.586Z,17.03
2022-08-28T05:10:23.738Z,17.33
2022-08-28T05:12:27.016Z,16.57
2022-08-28T05:14:30.694Z,17.50
2022-08-28T05:16:40.327Z,18.27
2022-08-28T05:18:44.073Z,16.53
2022-08-28T05:20:48.407Z,17.43
2022-08-28T05:22:51.367Z,18.07
2022-08-28T05:24:54.619Z,20.47
2022-08-28T05:26:57.686Z,17.50
2022-08-28T05:29:00.867Z,20.00
2022-08-28T05:31:10.305Z,19.80
2022-08-28T05:33:15.875Z,17.90
2022-08-28T05:35:19.113Z,20.10
2022-08-28T05:37:22.295Z,18.30
2022-08-28T05:39:25.361Z,25.23
2022-08-28T05:41:30.152Z,20.53
2022-08-28T05:43:33.213Z,19.50
2022-08-28T05:45:36.188Z,18.10
2022-08-28T05:47:39.192Z,17.77
2022-08-28T05:49:43.564Z,17.57
2022-08-28T05:51:47.338Z,17.47
2022-08-28T05:53:51.103Z,19.13
2022-08-28T05:55:54.104Z,18.00
2022-08-28T05:58:17.584Z,17.53
2022-08-28T06:00:21.186Z,19.73
2022-08-28T06:02:24.231Z,19.07
2022-08-28T06:04:28.762Z,19.37
2022-08-28T06:06:35.443Z,16.50
2022-08-28T06:08:38.917Z,17.20
2022-08-28T06:11:02.178Z,17.57
2022-08-28T06:13:06.032Z,16.90
2022-08-28T06:15:10.586Z,18.47
2022-08-28T06:17:13.655Z,18.93
2022-08-28T06:19:17.935Z,20.30
2022-08-28T06:21:20.969Z,16.37
2022-08-28T06:23:25.942Z,16.80
2022-08-28T06:25:28.901Z,16.90
2022-08-28T06:27:34.147Z,15.10
2022-08-28T06:29:37.303Z,15.77
2022-08-28T06:31:40.721Z,16.97
2022-08-28T06:33:43.751Z,15.80
2022-08-28T06:35:49.200Z,15.77
2022-08-28T06:37:52.321Z,15.17
2022-08-28T06:39:56.935Z,16.37
2022-08-28T06:42:00.017Z,17.70
2022-08-28T06:44:04.588Z,13.60
2022-08-28T06:46:07.815Z,15.17
2022-08-28T06:48:12.104Z,16.03
2022-08-28T06:50:15.791Z,16.47
2022-08-28T06:52:18.954Z,15.20
2022-08-28T06:54:23.646Z,15.33
2022-08-28T06:56:28.244Z,15.10
2022-08-28T06:58:32.427Z,16.43
2022-08-28T07:00:36.958Z,16.53
2022-08-28T07:02:40.103Z,15.50
2022-08-28T07:04:43.164Z,16.80
2022-08-28T07:06:53.658Z,16.07
2022-08-28T07:09:00.481Z,16.53
2022-08-28T07:11:10.660Z,15.47
2022-08-28T07:13:15.299Z,15.03
2022-08-28T07:15:18.656Z,14.83
2022-08-28T07:17:23.596Z,15.17
2022-08-28T07:19:26.786Z,17.53
2022-08-28T07:21:31.063Z,16.67
2022-08-28T07:23:35.952Z,16.97
2022-08-28T07:25:41.530Z,15.03
2022-08-28T07:27:44.540Z,15.17
2022-08-28T07:29:48.969Z,15.53
2022-08-28T07:31:54.046Z,16.43
2022-08-28T07:33:57.173Z,19.33
2022-08-28T07:36:01.693Z,14.60
2022-08-28T07:38:04.700Z,17.67
2022-08-28T07:40:10.098Z,18.37
2022-08-28T07:42:35.732Z,17.17
2022-08-28T07:44:50.330Z,15.27
2022-08-28T07:46:56.008Z,14.50
2022-08-28T07:48:59.561Z,14.90
2022-08-28T07:51:03.035Z,14.97
2022-08-28T07:53:08.651Z,14.60
2022-08-28T07:55:11.724Z,16.17
2022-08-28T07:57:17.104Z,14.43
2022-08-28T07:59:22.013Z,15.03
2022-08-28T08:01:26.185Z,15.43
2022-08-28T08:03:32.246Z,17.20
2022-08-28T08:05:35.471Z,13.40
2022-08-28T08:07:39.739Z,14.00
2022-08-28T08:09:46.446Z,13.30
2022-08-28T08:11:50.107Z,14.23
2022-08-28T08:13:54.634Z,15.33
2022-08-28T08:16:01.914Z,18.00
2022-08-28T08:18:05.464Z,16.27
2022-08-28T08:20:11.115Z,13.33
2022-08-28T08:22:14.124Z,14.17
2022-08-28T08:24:20.902Z,14.47
2022-08-28T08:26:26.320Z,13.60
2022-08-28T08:28:30.252Z,14.17
2022-08-28T08:30:33.396Z,12.43
2022-08-28T08:32:39.232Z,12.50
2022-08-28T08:34:45.675Z,14.63
2022-08-28T08:36:50.073Z,15.17
2022-08-28T08:38:59.842Z,14.90
2022-08-28T08:41:07.453Z,12.97
2022-08-28T08:43:11.178Z,14.93
2022-08-28T08:45:16.504Z,14.20
2022-08-28T08:47:22.461Z,13.77
2022-08-28T08:49:27.548Z,14.10
2022-08-28T08:51:40.651Z,16.20
2022-08-28T08:53:48.485Z,14.80
2022-08-28T08:55:53.173Z,13.60
2022-08-28T08:58:03.197Z,14.80
2022-08-28T09:00:10.227Z,14.13
2022-08-28T09:02:19.373Z,13.63
2022-08-28T09:04:31.991Z,13.27
2022-08-28T09:06:41.921Z,15.37
2022-08-28T09:08:49.090Z,12.03
2022-08-28T09:11:01.132Z,13.87
2022-08-28T09:13:09.309Z,13.00
2022-08-28T09:15:15.690Z,12.93
2022-08-28T09:17:20.193Z,12.73
2022-08-28T09:19:23.586Z,16.40
2022-08-28T09:21:32.305Z,13.10
2022-08-28T09:23:35.330Z,10.47
2022-08-28T09:25:54.301Z,12.00
2022-08-28T09:28:07.852Z,14.50
2022-08-28T09:30:11.669Z,15.37
2022-08-28T09:32:23.425Z,12.00
2022-08-28T09:34:29.814Z,10.40
2022-08-28T09:36:34.283Z,10.93
2022-08-28T09:38:39.033Z,12.47
2022-08-28T09:40:55.991Z,11.70
2022-08-28T09:43:24.619Z,11.50
2022-08-28T09:45:29.112Z,11.27
2022-08-28T09:47:46.822Z,12.07
2022-08-28T09:49:50.336Z,10.60
2022-08-28T09:51:53.940Z,10.83
2022-08-28T09:54:01.068Z,11.50
2022-08-28T09:56:10.919Z,12.43
2022-08-28T09:58:15.727Z,11.07
2022-08-28T10:00:18.987Z,14.93
2022-08-28T10:02:25.106Z,11.00
2022-08-28T10:04:42.335Z,11.07
2022-08-28T10:06:50.816Z,12.53
2022-08-28T10:09:02.688Z,9.60
2022-08-28T10:11:13.298Z,10.83
2022-08-28T10:13:22.459Z,9.73
2022-08-28T10:15:29.430Z,9.70
2022-08-28T10:17:36.755Z,10.37
2022-08-28T10:19:46.564Z,9.87
2022-08-28T10:21:52.711Z,9.13
2022-08-28T10:24:08.638Z,10.10
2022-08-28T10:26:23.452Z,9.67
2022-08-28T10:28:38.940Z,10.90
2022-08-28T10:30:51.555Z,9.53
2022-08-28T10:33:04.830Z,10.80
2022-08-28T10:35:12.870Z,10.13
2022-08-28T10:37:25.090Z,9.77
2022-08-28T10:39:35.571Z,10.07
2022-08-28T10:41:42.963Z,10.03
2022-08-28T10:43:49.608Z,9.63
2022-08-28T10:45:53.121Z,9.43
2022-08-28T10:47:59.059Z,9.53
2022-08-28T10:50:06.507Z,10.90
2022-08-28T10:52:12.595Z,8.43
2022-08-28T10:54:22.550Z,9.40
2022-08-28T10:56:28.729Z,10.80
2022-08-28T10:58:32.211Z,12.00
2022-08-28T11:00:37.132Z,9.30
2022-08-28T11:02:40.925Z,9.90
2022-08-28T11:04:44.195Z,10.40
2022-08-28T11:06:51.293Z,11.40
2022-08-28T11:08:56.372Z,9.60
2022-08-28T11:11:00.445Z,9.57
2022-08-28T11:13:04.801Z,11.20
2022-08-28T11:15:38.269Z,12.90
2022-08-28T11:17:43.356Z,9.13
2022-08-28T11:20:05.520Z,11.90
2022-08-28T11:22:12.301Z,9.33
2022-08-28T11:24:43.793Z,9.30
2022-08-28T11:26:52.421Z,10.30
2022-08-28T11:28:55.455Z,10.30
2022-08-28T11:31:33.309Z,12.13
2022-08-28T11:33:40.742Z,10.40
2022-08-28T11:35:47.271Z,9.10
2022-08-28T11:37:51.979Z,14.13
2022-08-28T11:40:15.282Z,10.50
2022-08-28T11:42:38.518Z,8.70
2022-08-28T11:44:44.206Z,9.40
2022-08-28T11:46:48.680Z,9.00
2022-08-28T11:48:54.112Z,9.60
2022-08-28T11:51:00.269Z,9.77
2022-08-28T11:53:36.673Z,10.55
2022-08-28T11:55:51.776Z,9.80
2022-08-28T12:00:11.460Z,9.73
2022-08-28T12:02:36.981Z,9.30
2022-08-28T12:04:43.966Z,10.10
2022-08-28T12:06:53.356Z,9.73
2022-08-28T12:09:05.868Z,8.33
2022-08-28T12:11:08.912Z,12.50
2022-08-28T12:13:43.019Z,8.30
2022-08-28T12:15:47.273Z,9.60
2022-08-28T12:17:55.165Z,10.50
2022-08-28T12:20:08.895Z,9.18
2022-08-28T12:22:13.639Z,8.80
2022-08-28T12:24:22.382Z,9.97
2022-08-28T12:26:27.573Z,8.83
2022-08-28T12:28:34.047Z,7.80
2022-08-28T12:30:43.149Z,8.63
2022-08-28T12:32:51.076Z,8.07
2022-08-28T12:35:11.209Z,8.87
2022-08-28T12:37:29.948Z,8.43
2022-08-28T12:39:34.324Z,8.57
2022-08-28T12:41:37.565Z,9.47
2022-08-28T12:43:46.589Z,9.80
2022-08-28T12:45:52.080Z,10.33
2022-08-28T12:47:58.261Z,8.70
2022-08-28T12:50:27.868Z,8.77
2022-08-28T12:52:31.056Z,8.80
2022-08-28T12:54:35.307Z,9.10
2022-08-28T12:56:39.217Z,10.20
2022-08-28T12:58:43.104Z,10.70
2022-08-28T13:00:52.788Z,9.47
2022-08-28T13:02:57.079Z,9.80
2022-08-28T13:05:05.784Z,9.43
2022-08-28T13:07:13.297Z,8.20
2022-08-28T13:09:18.261Z,8.63
2022-08-28T13:11:21.582Z,9.07
2022-08-28T13:13:34.021Z,9.70
2022-08-28T13:15:45.747Z,12.77
2022-08-28T13:17:50.352Z,8.80
2022-08-28T13:20:03.021Z,8.97
2022-08-28T13:22:08.637Z,8.70
2022-08-28T13:24:37.695Z,8.03
2022-08-28T13:26:41.415Z,8.20
2022-08-28T13:28:44.808Z,9.17
2022-08-28T13:30:58.127Z,8.90
2022-08-28T13:33:04.563Z,10.30
2022-08-28T13:35:16.800Z,8.40
2022-08-28T13:37:47.919Z,10.07
2022-08-28T13:39:52.659Z,8.03
2022-08-28T13:41:57.985Z,9.10
2022-08-28T13:44:02.805Z,7.83
2022-08-28T13:46:05.882Z,7.00
2022-08-28T13:48:09.078Z,7.53
2022-08-28T13:50:12.083Z,7.57
2022-08-28T13:52:15.211Z,7.97
2022-08-28T13:54:18.561Z,8.00
2022-08-28T13:56:24.466Z,7.93
2022-08-28T13:58:28.178Z,7.83
2022-08-28T14:00:33.115Z,7.43
2022-08-28T14:02:55.263Z,7.30
2022-08-28T14:04:58.443Z,7.90
2022-08-28T14:07:01.517Z,8.23
2022-08-28T14:09:04.617Z,6.43
2022-08-28T14:11:08.274Z,8.07
2022-08-28T14:13:17.373Z,6.47
2022-08-28T14:15:20.567Z,6.73
2022-08-28T14:17:23.630Z,8.97
2022-08-28T14:19:27.438Z,10.30
2022-08-28T14:21:30.409Z,6.53
2022-08-28T14:23:34.372Z,6.93
2022-08-28T14:25:42.237Z,8.33
2022-08-28T14:27:45.279Z,7.50
2022-08-28T14:29:50.076Z,7.60
2022-08-28T14:31:53.230Z,7.67
2022-08-28T14:33:58.021Z,6.73
2022-08-28T14:36:01.243Z,7.17
2022-08-28T14:38:04.369Z,8.27
2022-08-28T14:40:08.716Z,9.50
2022-08-28T14:42:13.308Z,7.90
2022-08-28T14:44:16.953Z,7.20
2022-08-28T14:46:23.566Z,6.87
2022-08-28T14:48:26.830Z,7.00
2022-08-28T14:50:29.895Z,7.53
2022-08-28T14:52:33.140Z,8.53
2022-08-28T14:54:36.283Z,7.40
2022-08-28T14:56:39.493Z,7.83
2022-08-28T14:58:42.826Z,6.40
2022-08-28T15:00:48.255Z,6.80
2022-08-28T15:02:53.328Z,6.40
2022-08-28T15:05:03.047Z,7.33
2022-08-28T15:07:16.400Z,8.00
2022-08-28T15:09:20.204Z,8.80
2022-08-28T15:11:26.373Z,6.20
2022-08-28T15:13:31.527Z,7.20
2022-08-28T15:15:35.064Z,6.97
2022-08-28T15:17:38.068Z,6.97
2022-08-28T15:19:42.554Z,6.87
2022-08-28T15:21:50.188Z,7.40
2022-08-28T15:23:55.656Z,6.50
2022-08-28T15:25:58.726Z,10.47
2022-08-28T15:28:01.774Z,7.50
2022-08-28T15:30:05.678Z,7.27
2022-08-28T15:32:08.915Z,6.80
2022-08-28T15:34:13.858Z,6.57
2022-08-28T15:36:18.618Z,8.73
2022-08-28T15:38:21.757Z,7.77
2022-08-28T15:40:42.519Z,7.47
2022-08-28T15:42:45.740Z,6.50
2022-08-28T15:44:48.864Z,6.20
2022-08-28T15:46:54.047Z,6.43
2022-08-28T15:48:57.586Z,6.93
2022-08-28T15:51:00.669Z,8.10
2022-08-28T15:53:06.162Z,6.70
2022-08-28T15:55:10.588Z,6.50
2022-08-28T15:57:13.773Z,8.47
2022-08-28T15:59:17.644Z,6.77
2022-08-28T16:01:21.023Z,7.60
2022-08-28T16:03:24.173Z,7.80
2022-08-28T16:05:31.335Z,7.83
2022-08-28T16:07:34.925Z,7.30
2022-08-28T16:09:39.399Z,7.37
2022-08-28T16:11:43.954Z,7.00
2022-08-28T16:13:47.294Z,7.30
2022-08-28T16:15:50.334Z,6.90
2022-08-28T16:17:53.356Z,9.70
2022-08-28T16:19:56.388Z,6.60
2022-08-28T16:21:59.486Z,6.77
2022-08-28T16:24:02.531Z,6.37
2022-08-28T16:26:07.994Z,6.50
2022-08-28T16:28:11.170Z,10.50
2022-08-28T16:30:15.639Z,7.03
2022-08-28T16:32:19.182Z,6.97
2022-08-28T16:34:22.224Z,7.80
2022-08-28T16:36:26.120Z,8.07
2022-08-28T16:38:30.478Z,6.90
2022-08-28T16:40:33.861Z,7.67
2022-08-28T16:42:38.528Z,6.47
2022-08-28T16:44:41.595Z,6.87
2022-08-28T16:46:44.698Z,7.53
2022-08-28T16:48:48.677Z,8.33
2022-08-28T16:50:51.731Z,6.97
2022-08-28T16:52:55.090Z,6.73
2022-08-28T16:54:59.864Z,7.70
2022-08-28T16:57:06.328Z,6.67
2022-08-28T16:59:16.563Z,7.33
2022-08-28T17:01:21.655Z,7.17
2022-08-28T17:03:27.731Z,7.60
2022-08-28T17:05:31.400Z,6.93
2022-08-28T17:07:35.278Z,8.33
2022-08-28T17:09:38.364Z,8.30
2022-08-28T17:11:42.273Z,6.37
2022-08-28T17:13:46.711Z,6.80
2022-08-28T17:15:51.233Z,9.83
2022-08-28T17:17:54.600Z,8.90
2022-08-28T17:19:57.687Z,7.63
2022-08-28T17:22:17.986Z,7.63
2022-08-28T17:24:23.187Z,8.00
2022-08-28T17:26:26.568Z,7.60
2022-08-28T17:28:29.610Z,8.00
2022-08-28T17:30:33.360Z,6.97
2022-08-28T17:32:38.443Z,6.83
2022-08-28T17:34:41.551Z,6.20
2022-08-28T17:36:44.607Z,7.30
2022-08-28T17:38:47.711Z,6.70
2022-08-28T17:40:50.770Z,6.73
2022-08-28T17:42:54.173Z,6.20
2022-08-28T17:44:57.275Z,6.60
2022-08-28T17:47:01.067Z,6.37
2022-08-28T17:49:09.153Z,6.00
2022-08-28T17:51:12.201Z,6.93
2022-08-28T17:53:15.283Z,6.93
2022-08-28T17:55:18.521Z,6.50
2022-08-28T17:57:26.570Z,6.83
2022-08-28T17:59:30.556Z,6.73
2022-08-28T18:01:34.253Z,8.33
2022-08-28T18:03:46.594Z,6.00
2022-08-28T18:05:57.904Z,6.33
2022-08-28T18:08:01.152Z,7.20
2022-08-28T18:10:05.717Z,5.57
2022-08-28T18:12:12.535Z,6.60
2022-08-28T18:14:16.006Z,6.53
2022-08-28T18:16:19.440Z,8.47
2022-08-28T18:18:22.717Z,7.30
2022-08-28T18:20:37.585Z,7.40
2022-08-28T18:22:42.176Z,7.07
2022-08-28T18:24:45.412Z,9.40
2022-08-28T18:26:48.548Z,9.80
2022-08-28T18:28:52.236Z,6.77
2022-08-28T18:30:55.767Z,8.50
2022-08-28T18:32:59.247Z,10.13
2022-08-28T18:35:02.453Z,7.40
2022-08-28T18:37:05.740Z,7.10
2022-08-28T18:39:10.827Z,6.73
2022-08-28T18:41:14.013Z,8.70
2022-08-28T18:43:20.328Z,6.80
2022-08-28T18:45:23.472Z,7.10
2022-08-28T18:47:26.727Z,7.30
2022-08-28T18:49:29.829Z,7.77
2022-08-28T18:51:33.242Z,10.17
2022-08-28T18:53:36.574Z,8.43
2022-08-28T18:55:41.070Z,9.07
2022-08-28T18:57:44.290Z,7.67
2022-08-28T18:59:50.011Z,7.70
2022-08-28T19:01:53.230Z,7.80
2022-08-28T19:03:56.786Z,7.73
2022-08-28T19:05:59.865Z,7.20
2022-08-28T19:08:03.046Z,7.80
2022-08-28T19:10:18.312Z,10.23
2022-08-28T19:12:33.366Z,7.80
2022-08-28T19:14:36.957Z,7.13
2022-08-28T19:16:40.373Z,8.40
2022-08-28T19:18:43.799Z,8.23
2022-08-28T19:20:47.051Z,7.10
2022-08-28T19:22:50.148Z,7.13
2022-08-28T19:24:53.193Z,11.07
2022-08-28T19:26:56.226Z,7.87
2022-08-28T19:29:00.727Z,8.23
2022-08-28T19:31:03.960Z,8.70
2022-08-28T19:33:07.025Z,8.00
2022-08-28T19:35:10.917Z,7.73
2022-08-28T19:37:14.559Z,7.83
2022-08-28T19:39:17.998Z,8.70
2022-08-28T19:41:22.717Z,8.10
2022-08-28T19:43:25.860Z,8.30
2022-08-28T19:45:47.282Z,8.77
2022-08-28T19:47:50.521Z,7.67
2022-08-28T19:49:54.131Z,8.20
2022-08-28T19:51:57.935Z,8.20
2022-08-28T19:54:02.004Z,10.30
2022-08-28T19:56:06.153Z,9.30
2022-08-28T19:58:10.321Z,8.40
2022-08-28T20:00:15.127Z,12.57
2022-08-28T20:02:19.658Z,9.00
2022-08-28T20:04:22.748Z,8.10
2022-08-28T20:06:28.904Z,9.73
2022-08-28T20:08:32.088Z,8.77
2022-08-28T20:10:35.132Z,9.10
2022-08-28T20:12:38.480Z,8.23
2022-08-28T20:14:42.569Z,9.70
2022-08-28T20:16:48.316Z,9.10
2022-08-28T20:18:52.860Z,9.23
2022-08-28T20:20:56.004Z,9.43
2022-08-28T20:22:59.065Z,9.27
2022-08-28T20:25:02.290Z,9.70
2022-08-28T20:27:05.748Z,9.37
2022-08-28T20:29:09.930Z,9.30
2022-08-28T20:31:16.326Z,9.43
2022-08-28T20:33:19.439Z,10.47
2022-08-28T20:35:24.587Z,9.20
2022-08-28T20:37:30.784Z,8.73
2022-08-28T20:39:37.060Z,9.67
2022-08-28T20:41:42.656Z,10.13
2022-08-28T20:43:46.391Z,9.87
2022-08-28T20:45:50.490Z,9.67
2022-08-28T20:47:53.776Z,9.93
2022-08-28T20:49:57.107Z,10.27
2022-08-28T20:52:01.849Z,12.40
2022-08-28T20:54:05.261Z,9.90
2022-08-28T20:56:10.578Z,11.40
2022-08-28T20:58:14.359Z,11.40
2022-08-28T21:00:18.357Z,10.13
2022-08-28T21:02:22.991Z,10.70
2022-08-28T21:04:26.145Z,11.10
2022-08-28T21:06:31.007Z,10.47
2022-08-28T21:08:35.436Z,10.53
2022-08-28T21:10:39.568Z,11.23
2022-08-28T21:12:42.743Z,10.37
2022-08-28T21:14:51.555Z,9.67
2022-08-28T21:16:55.527Z,10.50
2022-08-28T21:19:15.295Z,9.90
2022-08-28T21:21:19.183Z,9.60
2022-08-28T21:23:24.784Z,10.40
2022-08-28T21:25:29.213Z,10.47
2022-08-28T21:27:32.325Z,9.93
2022-08-28T21:29:35.353Z,13.60
2022-08-28T21:31:41.616Z,10.37
2022-08-28T21:33:44.678Z,10.30
2022-08-28T21:35:47.753Z,11.53
2022-08-28T21:37:51.148Z,10.10
2022-08-28T21:39:56.418Z,11.30
2022-08-28T21:42:01.104Z,11.23
2022-08-28T21:44:06.022Z,11.67
2022-08-28T21:46:09.790Z,10.20
2022-08-28T21:48:13.103Z,12.27
2022-08-28T21:50:16.729Z,12.90
2022-08-28T21:52:20.480Z,11.07
2022-08-28T21:54:24.519Z,10.73
2022-08-28T21:56:28.875Z,11.23
2022-08-28T21:58:33.831Z,10.73
2022-08-28T22:00:37.004Z,11.30
2022-08-28T22:02:40.159Z,11.30
2022-08-28T22:04:43.304Z,11.07
2022-08-28T22:06:46.343Z,10.93
2022-08-28T22:08:50.134Z,11.37
2022-08-28T22:10:53.257Z,11.13
2022-08-28T22:12:56.465Z,11.67
2022-08-28T22:15:01.007Z,11.90
2022-08-28T22:17:07.614Z,13.77
2022-08-28T22:19:13.860Z,10.60
2022-08-28T22:21:36.746Z,12.70
2022-08-28T22:23:40.082Z,11.13
2022-08-28T22:25:44.436Z,11.50
2022-08-28T22:27:47.530Z,11.27
2022-08-28T22:29:50.596Z,12.40
2022-08-28T22:31:55.114Z,11.17
2022-08-28T22:33:58.220Z,10.73
2022-08-28T22:36:01.251Z,11.10
2022-08-28T22:38:04.678Z,13.60
2022-08-28T22:40:09.432Z,11.53
2022-08-28T22:42:16.111Z,10.57
2022-08-28T22:44:19.095Z,13.10
2022-08-28T22:46:22.350Z,11.37
2022-08-28T22:48:26.747Z,10.73
2022-08-28T22:50:29.917Z,13.80
2022-08-28T22:52:33.751Z,11.00
2022-08-28T22:54:36.772Z,10.90
2022-08-28T22:56:39.780Z,11.47
2022-08-28T22:58:42.822Z,12.10
2022-08-28T23:00:45.855Z,11.43
2022-08-28T23:02:50.003Z,10.33
2022-08-28T23:04:54.441Z,12.50
2022-08-28T23:06:57.471Z,11.33
2022-08-28T23:09:00.447Z,10.80
2022-08-28T23:11:03.628Z,10.67
2022-08-28T23:13:06.652Z,13.07
2022-08-28T23:15:14.259Z,11.10
2022-08-28T23:17:17.834Z,10.60
2022-08-28T23:19:21.816Z,10.37
2022-08-28T23:21:28.355Z,11.00
2022-08-28T23:23:31.378Z,10.40
2022-08-28T23:25:35.148Z,9.63
2022-08-28T23:27:38.156Z,10.10
2022-08-28T23:29:41.203Z,10.77
2022-08-28T23:31:44.301Z,12.83
2022-08-28T23:33:47.339Z,9.80
2022-08-28T23:35:50.888Z,11.23
2022-08-28T23:37:55.243Z,11.20
2022-08-28T23:39:58.299Z,10.50
2022-08-28T23:42:03.907Z,13.90
2022-08-28T23:44:08.976Z,11.90
2022-08-28T23:46:16.144Z,10.50
2022-08-28T23:48:19.184Z,10.90
2022-08-28T23:50:23.701Z,11.00
2022-08-28T23:52:28.026Z,11.67
2022-08-28T23:54:32.403Z,10.63
2022-08-28T23:56:35.521Z,10.40
2022-08-28T23:58:38.565Z,10.10
